Maramec, Oklahoma
Current Conditions -  °F | °C
As of 5:55 AM on Sunday 23 Nov 2014 (Local Time) from KCUH Reporting Station
Overcast Overcast  
Wind Chill: 55°   Ceiling: 1400
Heat Index: 55°   Visibility: 10mi
Dew Point: 55°   Wind: 9mph
Humidity: 100%   Direction: 170°S
Pressure: 29.52"   Gusts: NA
Location:  36.24°N, 96.68°W
Report Text: KCUH 231155Z AUTO 17008KT 10SM OVC014 13/13 A2952 RMK AO2
Loading
Personal Weather Stations






























Interactive Weather Map New forecast layout! Learn more

10-Day Weather Forecast

Advertisements
Track Severe Weather on mobile